Terminal Aerodrome Forecast
Issued by NWS

Home | Current Version | Previous Version | Graphics & Text | Print | Product List | Glossary On
Versions: 1 2 3 4 5 6 7 8 9 10 11 12 13 14 15 16 17
000
FTUS43 KGRB 240500
TAFRHI
TAF
KRHI 240520Z 2406/2506 13005KT P6SM SCT070 OVC120
      TEMPO 2406/2409 -RAPL OVC040
     FM240900 11008KT 4SM -RASNPL BKN016 OVC030 WS020/15030KT
     FM241500 11011G16KT 1SM -SN BKN009 OVC015 WS020/15040KT
     FM242200 11012G20KT 2SM -RASN BR BKN004 OVC010 WS020/14045KT
     FM250200 13008KT 2SM -RASN BR BKN003 OVC010=

USA.gov is the U.S. government's official web portal to all federal, state and local government web resources and services.